sensor_id;sensor_type;location;lat;lon;timestamp;pressure;altitude;pressure_sealevel;temperature;humidity
27429;BME280;14881;48.092;11.574;2023-08-30T00:02:22;94908.13;;;11.92;100.00
27429;BME280;14881;48.092;11.574;2023-08-30T00:04:48;94912.59;;;11.88;100.00
27429;BME280;14881;48.092;11.574;2023-08-30T00:07:15;94903.44;;;11.84;100.00
27429;BME280;14881;48.092;11.574;2023-08-30T00:09:41;94903.75;;;11.82;100.00
27429;BME280;14881;48.092;11.574;2023-08-30T00:12:08;94906.78;;;11.81;100.00
27429;BME280;14881;48.092;11.574;2023-08-30T00:14:35;94906.53;;;11.91;100.00
27429;BME280;14881;48.092;11.574;2023-08-30T00:17:01;94905.34;;;11.83;100.00
27429;BME280;14881;48.092;11.574;2023-08-30T00:19:28;94898.47;;;11.77;100.00
27429;BME280;14881;48.092;11.574;2023-08-30T00:21:54;94909.19;;;11.82;100.00
27429;BME280;14881;48.092;11.574;2023-08-30T00:24:20;94903.00;;;11.91;100.00
27429;BME280;14881;48.092;11.574;2023-08-30T00:26:47;94907.66;;;11.90;100.00
27429;BME280;14881;48.092;11.574;2023-08-30T00:29:14;94906.53;;;11.91;100.00
27429;BME280;14881;48.092;11.574;2023-08-30T00:31:40;94905.09;;;11.94;100.00
27429;BME280;14881;48.092;11.574;2023-08-30T00:34:07;94915.50;;;11.92;100.00
27429;BME280;14881;48.092;11.574;2023-08-30T00:36:33;94908.06;;;11.83;100.00
27429;BME280;14881;48.092;11.574;2023-08-30T00:38:59;94917.72;;;11.90;100.00
27429;BME280;14881;48.092;11.574;2023-08-30T00:41:26;94915.81;;;11.90;100.00
27429;BME280;14881;48.092;11.574;2023-08-30T00:43:52;94904.63;;;11.92;100.00
27429;BME280;14881;48.092;11.574;2023-08-30T00:46:19;94908.63;;;11.94;100.00
27429;BME280;14881;48.092;11.574;2023-08-30T00:48:47;94904.91;;;11.90;100.00
27429;BME280;14881;48.092;11.574;2023-08-30T00:51:13;94908.06;;;11.83;100.00
27429;BME280;14881;48.092;11.574;2023-08-30T00:53:40;94903.75;;;11.82;100.00
27429;BME280;14881;48.092;11.574;2023-08-30T00:56:06;94902.63;;;11.83;100.00
27429;BME280;14881;48.092;11.574;2023-08-30T00:58:33;94903.13;;;11.85;100.00
27429;BME280;14881;48.092;11.574;2023-08-30T01:00:59;94903.94;;;11.86;100.00
27429;BME280;14881;48.092;11.574;2023-08-30T01:03:26;94906.16;;;11.84;100.00
27429;BME280;14881;48.092;11.574;2023-08-30T01:05:53;94908.06;;;11.83;100.00
27429;BME280;14881;48.092;11.574;2023-08-30T01:08:19;94910.97;;;11.87;100.00
27429;BME280;14881;48.092;11.574;2023-08-30T01:10:52;94908.69;;;11.80;100.00
27429;BME280;14881;48.092;11.574;2023-08-30T01:13:21;94911.28;;;11.85;100.00
27429;BME280;14881;48.092;11.574;2023-08-30T01:15:48;94910.50;;;11.85;100.00
27429;BME280;14881;48.092;11.574;2023-08-30T01:18:18;94909.06;;;11.88;100.00
27429;BME280;14881;48.092;11.574;2023-08-30T01:20:46;94896.38;;;11.83;100.00
27429;BME280;14881;48.092;11.574;2023-08-30T01:23:20;94901.34;;;11.81;100.00
27429;BME280;14881;48.092;11.574;2023-08-30T01:25:55;94902.94;;;11.82;100.00
27429;BME280;14881;48.092;11.574;2023-08-30T01:28:26;94896.38;;;11.83;100.00
27429;BME280;14881;48.092;11.574;2023-08-30T01:30:53;94899.56;;;11.76;100.00
27429;BME280;14881;48.092;11.574;2023-08-30T01:33:20;94891.75;;;11.83;100.00
27429;BME280;14881;48.092;11.574;2023-08-30T01:35:47;94885.31;;;11.79;100.00
27429;BME280;14881;48.092;11.574;2023-08-30T01:38:14;94885.63;;;11.78;100.00
27429;BME280;14881;48.092;11.574;2023-08-30T01:40:42;94886.13;;;11.80;100.00
27429;BME280;14881;48.092;11.574;2023-08-30T01:43:09;94892.22;;;11.77;100.00
27429;BME280;14881;48.092;11.574;2023-08-30T01:45:39;94898.47;;;11.77;100.00
27429;BME280;14881;48.092;11.574;2023-08-30T01:48:07;94895.41;;;11.79;100.00
27429;BME280;14881;48.092;11.574;2023-08-30T01:50:35;94888.84;;;11.80;100.00
27429;BME280;14881;48.092;11.574;2023-08-30T01:53:03;94898.91;;;11.79;100.00
27429;BME280;14881;48.092;11.574;2023-08-30T01:55:30;94892.69;;;11.79;100.00
27429;BME280;14881;48.092;11.574;2023-08-30T01:57:58;94889.88;;;11.70;100.00
27429;BME280;14881;48.092;11.574;2023-08-30T02:00:24;94893.09;;;11.72;100.00
27429;BME280;14881;48.092;11.574;2023-08-30T02:02:51;94896.63;;;11.73;100.00
27429;BME280;14881;48.092;11.574;2023-08-30T02:05:18;94896.94;;;11.71;100.00
27429;BME280;14881;48.092;11.574;2023-08-30T02:07:49;94902.44;;;11.80;100.00
27429;BME280;14881;48.092;11.574;2023-08-30T02:10:21;94900.84;;;11.79;100.00
27429;BME280;14881;48.092;11.574;2023-08-30T02:12:52;94897.50;;;11.82;100.00
27429;BME280;14881;48.092;11.574;2023-08-30T02:15:20;94903.75;;;11.82;100.00
27429;BME280;14881;48.092;11.574;2023-08-30T02:17:48;94893.59;;;11.74;100.00
27429;BME280;14881;48.092;11.574;2023-08-30T02:20:15;94896.69;;;11.81;100.00
27429;BME280;14881;48.092;11.574;2023-08-30T02:22:42;94890.75;;;11.79;100.00
27429;BME280;14881;48.092;11.574;2023-08-30T02:25:08;94894.13;;;11.76;100.00
27429;BME280;14881;48.092;11.574;2023-08-30T02:27:36;94889.94;;;11.79;100.00
27429;BME280;14881;48.092;11.574;2023-08-30T02:30:03;94888.47;;;11.73;100.00
27429;BME280;14881;48.092;11.574;2023-08-30T02:32:29;94886.78;;;11.77;100.00
27429;BME280;14881;48.092;11.574;2023-08-30T02:34:56;94887.22;;;11.79;100.00
27429;BME280;14881;48.092;11.574;2023-08-30T02:37:23;94887.22;;;11.79;100.00
27429;BME280;14881;48.092;11.574;2023-08-30T02:39:50;94883.72;;;11.78;100.00
27429;BME280;14881;48.092;11.574;2023-08-30T02:42:16;94888.03;;;11.79;100.00
27429;BME280;14881;48.092;11.574;2023-08-30T02:44:43;94895.91;;;11.81;100.00
27429;BME280;14881;48.092;11.574;2023-08-30T02:47:09;94889.03;;;11.83;100.00
27429;BME280;14881;48.092;11.574;2023-08-30T02:49:35;94886.31;;;11.83;100.00
27429;BME280;14881;48.092;11.574;2023-08-30T02:52:02;94897.69;;;11.85;100.00
27429;BME280;14881;48.092;11.574;2023-08-30T02:54:29;94894.16;;;11.85;100.00
27429;BME280;14881;48.092;11.574;2023-08-30T02:56:56;94902.63;;;11.83;100.00
27429;BME280;14881;48.092;11.574;2023-08-30T02:59:22;94901.22;;;11.86;100.00
27429;BME280;14881;48.092;11.574;2023-08-30T03:01:49;94901.03;;;11.82;100.00
27429;BME280;14881;48.092;11.574;2023-08-30T03:04:15;94908.53;;;11.77;100.00
27429;BME280;14881;48.092;11.574;2023-08-30T03:06:41;94898.00;;;11.84;100.00
27429;BME280;14881;48.092;11.574;2023-08-30T03:09:08;94900.41;;;11.85;100.00
27429;BME280;14881;48.092;11.574;2023-08-30T03:11:34;94898.97;;;11.88;100.00
27429;BME280;14881;48.092;11.574;2023-08-30T03:14:01;94890.94;;;11.83;100.00
27429;BME280;14881;48.092;11.574;2023-08-30T03:16:27;94889.66;;;11.80;100.00
27429;BME280;14881;48.092;11.574;2023-08-30T03:18:54;94893.47;;;11.79;100.00
27429;BME280;14881;48.092;11.574;2023-08-30T03:21:21;94888.53;;;11.81;100.00
27429;BME280;14881;48.092;11.574;2023-08-30T03:23:47;94887.41;;;11.82;100.00
27429;BME280;14881;48.092;11.574;2023-08-30T03:26:15;94878.44;;;11.82;100.00
27429;BME280;14881;48.092;11.574;2023-08-30T03:28:43;94882.28;;;11.81;100.00
27429;BME280;14881;48.092;11.574;2023-08-30T03:31:14;94880.97;;;11.78;100.00
27429;BME280;14881;48.092;11.574;2023-08-30T03:33:41;94884.38;;;11.84;100.00
27429;BME280;14881;48.092;11.574;2023-08-30T03:36:12;94879.72;;;11.76;100.00
27429;BME280;14881;48.092;11.574;2023-08-30T03:38:39;94880.19;;;11.78;100.00
27429;BME280;14881;48.092;11.574;2023-08-30T03:41:05;94889.50;;;11.77;100.00
27429;BME280;14881;48.092;11.574;2023-08-30T03:43:33;94886.25;;;11.75;100.00
27429;BME280;14881;48.092;11.574;2023-08-30T03:46:00;94879.06;;;11.79;100.00
27429;BME280;14881;48.092;11.574;2023-08-30T03:48:29;94887.72;;;11.81;100.00
27429;BME280;14881;48.092;11.574;2023-08-30T03:50:56;94886.78;;;11.77;100.00
27429;BME280;14881;48.092;11.574;2023-08-30T03:53:23;94897.31;;;11.78;100.00
27429;BME280;14881;48.092;11.574;2023-08-30T03:55:49;94889.16;;;11.78;100.00
27429;BME280;14881;48.092;11.574;2023-08-30T03:58:16;94887.22;;;11.79;100.00
27429;BME280;14881;48.092;11.574;2023-08-30T04:00:42;94881.47;;;11.80;100.00
27429;BME280;14881;48.092;11.574;2023-08-30T04:03:10;94884.19;;;11.80;100.00
27429;BME280;14881;48.092;11.574;2023-08-30T04:05:37;94889.66;;;11.80;100.00
27429;BME280;14881;48.092;11.574;2023-08-30T04:08:05;94888.69;;;11.76;100.00
27429;BME280;14881;48.092;11.574;2023-08-30T04:10:34;94892.00;;;11.73;100.00
27429;BME280;14881;48.092;11.574;2023-08-30T04:13:01;94887.88;;;11.76;100.00
27429;BME280;14881;48.092;11.574;2023-08-30T04:15:27;94889.28;;;11.73;100.00
27429;BME280;14881;48.092;11.574;2023-08-30T04:17:54;94886.38;;;11.70;100.00
27429;BME280;14881;48.092;11.574;2023-08-30T04:20:21;94890.19;;;11.69;100.00
27429;BME280;14881;48.092;11.574;2023-08-30T04:22:48;94891.31;;;11.68;100.00
27429;BME280;14881;48.092;11.574;2023-08-30T04:25:14;94885.06;;;11.67;100.00
27429;BME280;14881;48.092;11.574;2023-08-30T04:27:41;94889.28;;;11.73;100.00
27429;BME280;14881;48.092;11.574;2023-08-30T04:30:09;94888.16;;;11.74;100.00
27429;BME280;14881;48.092;11.574;2023-08-30T04:32:36;94885.44;;;11.74;100.00
27429;BME280;14881;48.092;11.574;2023-08-30T04:35:02;94890.28;;;11.77;100.00
27429;BME280;14881;48.092;11.574;2023-08-30T04:37:30;94893.59;;;11.74;100.00
27429;BME280;14881;48.092;11.574;2023-08-30T04:39:57;94895.16;;;11.67;100.00
27429;BME280;14881;48.092;11.574;2023-08-30T04:42:24;94888.28;;;11.69;100.00
27429;BME280;14881;48.092;11.574;2023-08-30T04:44:50;94891.75;;;11.61;100.00
27429;BME280;14881;48.092;11.574;2023-08-30T04:47:18;94890.78;;;11.57;100.00
27429;BME280;14881;48.092;11.574;2023-08-30T04:49:44;94885.66;;;11.56;100.00
27429;BME280;14881;48.092;11.574;2023-08-30T04:52:15;94890.50;;;11.67;100.00
27429;BME280;14881;48.092;11.574;2023-08-30T04:54:42;94894.47;;;11.61;100.00
27429;BME280;14881;48.092;11.574;2023-08-30T04:57:11;94897.06;;;11.66;100.00
27429;BME280;14881;48.092;11.574;2023-08-30T04:59:40;94901.81;;;11.61;100.00
27429;BME280;14881;48.092;11.574;2023-08-30T05:02:06;94903.44;;;11.62;100.00
27429;BME280;14881;48.092;11.574;2023-08-30T05:04:33;94895.94;;;11.67;100.00
27429;BME280;14881;48.092;11.574;2023-08-30T05:06:59;94900.41;;;11.63;100.00
27429;BME280;14881;48.092;11.574;2023-08-30T05:09:25;94892.09;;;11.60;100.00
27429;BME280;14881;48.092;11.574;2023-08-30T05:11:53;94901.66;;;11.57;100.00
27429;BME280;14881;48.092;11.574;2023-08-30T05:14:20;94898.78;;;11.62;100.00
27429;BME280;14881;48.092;11.574;2023-08-30T05:16:46;94901.19;;;11.77;100.00
27429;BME280;14881;48.092;11.574;2023-08-30T05:19:15;94896.69;;;11.81;100.00
27429;BME280;14881;48.092;11.574;2023-08-30T05:21:42;94894.66;;;11.87;100.00
27429;BME280;14881;48.092;11.574;2023-08-30T05:24:09;94901.94;;;11.78;100.00
27429;BME280;14881;48.092;11.574;2023-08-30T05:26:36;94908.19;;;11.78;100.00
27429;BME280;14881;48.092;11.574;2023-08-30T05:29:03;94911.09;;;11.82;100.00
27429;BME280;14881;48.092;11.574;2023-08-30T05:31:29;94908.56;;;11.85;100.00
27429;BME280;14881;48.092;11.574;2023-08-30T05:33:56;94902.44;;;11.80;100.00
27429;BME280;14881;48.092;11.574;2023-08-30T05:36:22;94909.69;;;11.84;100.00
27429;BME280;14881;48.092;11.574;2023-08-30T05:38:49;94909.38;;;11.86;100.00
27429;BME280;14881;48.092;11.574;2023-08-30T05:41:15;94909.44;;;11.95;100.00
27429;BME280;14881;48.092;11.574;2023-08-30T05:43:41;94906.53;;;11.91;100.00
27429;BME280;14881;48.092;11.574;2023-08-30T05:46:08;94903.50;;;11.93;100.00
27429;BME280;14881;48.092;11.574;2023-08-30T05:48:40;94905.25;;;11.97;100.00
27429;BME280;14881;48.092;11.574;2023-08-30T05:51:06;94906.88;;;11.98;100.00
27429;BME280;14881;48.092;11.574;2023-08-30T05:53:33;94907.06;;;12.02;100.00
27429;BME280;14881;48.092;11.574;2023-08-30T05:55:59;94908.53;;;12.08;100.00
27429;BME280;14881;48.092;11.574;2023-08-30T05:58:26;94909.34;;;12.08;100.00
27429;BME280;14881;48.092;11.574;2023-08-30T06:00:52;94908.84;;;12.06;100.00
27429;BME280;14881;48.092;11.574;2023-08-30T06:03:19;94910.25;;;12.04;100.00
27429;BME280;14881;48.092;11.574;2023-08-30T06:05:45;94907.22;;;12.05;100.00
27429;BME280;14881;48.092;11.574;2023-08-30T06:08:14;94907.56;;;12.12;100.00
27429;BME280;14881;48.092;11.574;2023-08-30T06:10:41;94910.28;;;12.12;100.00
27429;BME280;14881;48.092;11.574;2023-08-30T06:13:07;94912.88;;;12.17;100.00
27429;BME280;14881;48.092;11.574;2023-08-30T06:15:35;94911.47;;;12.20;100.00
27429;BME280;14881;48.092;11.574;2023-08-30T06:18:03;94916.00;;;12.33;100.00
27429;BME280;14881;48.092;11.574;2023-08-30T06:20:30;94925.28;;;12.32;100.00
27429;BME280;14881;48.092;11.574;2023-08-30T06:22:58;94922.88;;;12.31;100.00
27429;BME280;14881;48.092;11.574;2023-08-30T06:25:24;94915.06;;;12.38;100.00
27429;BME280;14881;48.092;11.574;2023-08-30T06:27:58;94913.00;;;12.43;100.00
27429;BME280;14881;48.092;11.574;2023-08-30T06:30:24;94922.78;;;12.44;100.00
27429;BME280;14881;48.092;11.574;2023-08-30T06:32:51;94918.59;;;12.47;100.00
27429;BME280;14881;48.092;11.574;2023-08-30T06:35:17;94921.97;;;12.44;100.00
27429;BME280;14881;48.092;11.574;2023-08-30T06:37:44;94916.84;;;12.51;100.00
27429;BME280;14881;48.092;11.574;2023-08-30T06:40:11;94915.91;;;12.55;100.00
27429;BME280;14881;48.092;11.574;2023-08-30T06:42:38;94913.50;;;12.54;100.00
27429;BME280;14881;48.092;11.574;2023-08-30T06:45:05;94910.16;;;12.57;100.00
27429;BME280;14881;48.092;11.574;2023-08-30T06:47:32;94911.09;;;12.52;100.00
27429;BME280;14881;48.092;11.574;2023-08-30T06:50:00;94910.63;;;12.59;100.00
27429;BME280;14881;48.092;11.574;2023-08-30T06:52:26;94914.78;;;12.57;100.00
27429;BME280;14881;48.092;11.574;2023-08-30T06:54:53;94911.25;;;12.56;100.00
27429;BME280;14881;48.092;11.574;2023-08-30T06:57:20;94913.19;;;12.55;100.00
27429;BME280;14881;48.092;11.574;2023-08-30T06:59:47;94921.72;;;12.63;100.00
27429;BME280;14881;48.092;11.574;2023-08-30T07:02:13;94911.63;;;12.63;100.00
27429;BME280;14881;48.092;11.574;2023-08-30T07:04:40;94910.94;;;12.58;100.00
27429;BME280;14881;48.092;11.574;2023-08-30T07:07:06;94913.84;;;12.61;100.00
27429;BME280;14881;48.092;11.574;2023-08-30T07:09:33;94904.88;;;12.61;100.00
27429;BME280;14881;48.092;11.574;2023-08-30T07:12:00;94906.31;;;12.58;100.00
27429;BME280;14881;48.092;11.574;2023-08-30T07:14:26;94908.41;;;12.61;100.00
27429;BME280;14881;48.092;11.574;2023-08-30T07:16:53;94906.03;;;12.77;100.00
27429;BME280;14881;48.092;11.574;2023-08-30T07:19:19;94909.06;;;12.75;100.00
27429;BME280;14881;48.092;11.574;2023-08-30T07:21:45;94905.19;;;12.68;100.00
27429;BME280;14881;48.092;11.574;2023-08-30T07:24:12;94910.97;;;12.66;100.00
27429;BME280;14881;48.092;11.574;2023-08-30T07:26:38;94907.78;;;12.81;100.00
27429;BME280;14881;48.092;11.574;2023-08-30T07:29:05;94912.13;;;12.91;100.00
27429;BME280;14881;48.092;11.574;2023-08-30T07:31:32;94908.94;;;12.98;100.00
27429;BME280;14881;48.092;11.574;2023-08-30T07:33:58;94912.00;;;13.05;100.00
27429;BME280;14881;48.092;11.574;2023-08-30T07:36:25;94911.66;;;13.06;100.00
27429;BME280;14881;48.092;11.574;2023-08-30T07:39:11;94900.59;;;13.03;100.00
27429;BME280;14881;48.092;11.574;2023-08-30T07:41:37;94909.75;;;13.07;100.00
27429;BME280;14881;48.092;11.574;2023-08-30T07:44:04;94917.47;;;13.13;100.00
27429;BME280;14881;48.092;11.574;2023-08-30T07:46:31;94922.28;;;13.16;100.00
27429;BME280;14881;48.092;11.574;2023-08-30T07:48:57;94923.56;;;13.19;100.00
27429;BME280;14881;48.092;11.574;2023-08-30T07:51:24;94919.25;;;13.18;100.00
27429;BME280;14881;48.092;11.574;2023-08-30T07:53:50;94918.91;;;13.19;100.00
27429;BME280;14881;48.092;11.574;2023-08-30T07:56:17;94928.06;;;13.23;100.00
27429;BME280;14881;48.092;11.574;2023-08-30T07:58:43;94923.09;;;13.26;100.00
27429;BME280;14881;48.092;11.574;2023-08-30T08:01:10;94926.00;;;13.38;100.00
27429;BME280;14881;48.092;11.574;2023-08-30T08:03:37;94920.69;;;13.41;100.00
27429;BME280;14881;48.092;11.574;2023-08-30T08:06:11;94919.56;;;13.42;100.00
27429;BME280;14881;48.092;11.574;2023-08-30T08:08:37;94927.09;;;13.54;100.00
27429;BME280;14881;48.092;11.574;2023-08-30T08:11:04;94917.78;;;13.55;100.00
27429;BME280;14881;48.092;11.574;2023-08-30T08:13:30;94919.41;;;13.56;100.00
27429;BME280;14881;48.092;11.574;2023-08-30T08:15:57;94926.16;;;13.58;100.00
27429;BME280;14881;48.092;11.574;2023-08-30T08:18:24;94927.72;;;13.77;100.00
27429;BME280;14881;48.092;11.574;2023-08-30T08:20:51;94913.13;;;13.73;100.00
27429;BME280;14881;48.092;11.574;2023-08-30T08:23:17;94926.13;;;13.76;100.00
27429;BME280;14881;48.092;11.574;2023-08-30T08:25:44;94931.41;;;13.72;100.00
27429;BME280;14881;48.092;11.574;2023-08-30T08:28:10;94931.41;;;13.72;100.00
27429;BME280;14881;48.092;11.574;2023-08-30T08:30:37;94932.72;;;13.66;100.00
27429;BME280;14881;48.092;11.574;2023-08-30T08:33:04;94931.13;;;13.65;100.00
27429;BME280;14881;48.092;11.574;2023-08-30T08:35:31;94934.81;;;13.61;100.00
27429;BME280;14881;48.092;11.574;2023-08-30T08:37:57;94937.53;;;13.52;100.00
27429;BME280;14881;48.092;11.574;2023-08-30T08:40:23;94931.78;;;13.45;100.00
27429;BME280;14881;48.092;11.574;2023-08-30T08:43:10;94936.28;;;13.49;100.00
27429;BME280;14881;48.092;11.574;2023-08-30T08:45:38;94939.78;;;13.58;100.00
27429;BME280;14881;48.092;11.574;2023-08-30T08:48:05;94932.72;;;13.66;100.00
27429;BME280;14881;48.092;11.574;2023-08-30T08:50:33;94927.84;;;13.89;100.00
27429;BME280;14881;48.092;11.574;2023-08-30T08:53:01;94911.09;;;14.08;100.00
27429;BME280;14881;48.092;11.574;2023-08-30T08:55:29;94922.28;;;14.23;100.00
27429;BME280;14881;48.092;11.574;2023-08-30T08:57:57;94911.16;;;14.46;100.00
27429;BME280;14881;48.092;11.574;2023-08-30T09:00:24;94900.22;;;14.46;100.00
27429;BME280;14881;48.092;11.574;2023-08-30T09:02:51;94899.03;;;14.55;100.00
27429;BME280;14881;48.092;11.574;2023-08-30T09:05:19;94905.59;;;14.63;100.00
27429;BME280;14881;48.092;11.574;2023-08-30T09:07:47;94897.38;;;14.92;100.00
27429;BME280;14881;48.092;11.574;2023-08-30T09:10:13;94886.97;;;14.86;100.00
27429;BME280;14881;48.092;11.574;2023-08-30T09:12:40;94887.88;;;14.69;100.00
27429;BME280;14881;48.092;11.574;2023-08-30T09:15:07;94902.22;;;14.66;100.00
27429;BME280;14881;48.092;11.574;2023-08-30T09:17:37;94905.97;;;14.82;100.00
27429;BME280;14881;48.092;11.574;2023-08-30T09:20:08;94885.78;;;14.95;100.00
27429;BME280;14881;48.092;11.574;2023-08-30T09:22:38;94885.97;;;15.11;100.00
27429;BME280;14881;48.092;11.574;2023-08-30T09:25:07;94879.47;;;15.04;100.00
27429;BME280;14881;48.092;11.574;2023-08-30T09:27:34;94881.69;;;14.81;100.00
27429;BME280;14881;48.092;11.574;2023-08-30T09:30:03;94884.28;;;14.77;100.00
27429;BME280;14881;48.092;11.574;2023-08-30T09:32:30;94894.31;;;14.94;100.00
27429;BME280;14881;48.092;11.574;2023-08-30T09:34:58;94894.44;;;14.97;100.00
27429;BME280;14881;48.092;11.574;2023-08-30T09:37:25;94889.19;;;15.13;100.00
27429;BME280;14881;48.092;11.574;2023-08-30T09:39:52;94886.13;;;15.15;100.00
27429;BME280;14881;48.092;11.574;2023-08-30T09:42:19;94882.31;;;15.28;100.00
27429;BME280;14881;48.092;11.574;2023-08-30T09:44:45;94885.31;;;15.35;100.00
27429;BME280;14881;48.092;11.574;2023-08-30T09:47:12;94884.69;;;15.50;100.00
27429;BME280;14881;48.092;11.574;2023-08-30T09:49:43;94863.63;;;15.96;100.00
27429;BME280;14881;48.092;11.574;2023-08-30T09:52:10;94847.84;;;16.26;100.00
27429;BME280;14881;48.092;11.574;2023-08-30T09:54:38;94855.47;;;16.20;100.00
27429;BME280;14881;48.092;11.574;2023-08-30T09:57:07;94848.81;;;15.97;100.00
27429;BME280;14881;48.092;11.574;2023-08-30T09:59:35;94850.22;;;15.70;100.00
27429;BME280;14881;48.092;11.574;2023-08-30T10:02:02;94852.56;;;15.59;100.00
27429;BME280;14881;48.092;11.574;2023-08-30T10:04:29;94853.75;;;15.58;100.00
27429;BME280;14881;48.092;11.574;2023-08-30T10:06:58;94856.59;;;15.62;100.00
27429;BME280;14881;48.092;11.574;2023-08-30T10:09:25;94842.31;;;15.56;100.00
27429;BME280;14881;48.092;11.574;2023-08-30T10:11:51;94835.28;;;15.68;100.00
27429;BME280;14881;48.092;11.574;2023-08-30T10:14:18;94830.06;;;15.87;100.00
27429;BME280;14881;48.092;11.574;2023-08-30T10:16:46;94829.53;;;16.18;100.00
27429;BME280;14881;48.092;11.574;2023-08-30T10:19:15;94817.31;;;16.64;100.00
27429;BME280;14881;48.092;11.574;2023-08-30T10:21:43;94814.34;;;17.21;100.00
27429;BME280;14881;48.092;11.574;2023-08-30T10:24:12;94804.44;;;17.60;100.00
27429;BME280;14881;48.092;11.574;2023-08-30T10:27:01;94792.91;;;17.83;100.00
27429;BME280;14881;48.092;11.574;2023-08-30T10:29:30;94789.88;;;18.19;100.00
27429;BME280;14881;48.092;11.574;2023-08-30T10:32:02;94787.50;;;18.33;100.00
27429;BME280;14881;48.092;11.574;2023-08-30T10:34:31;94790.69;;;18.67;100.00
27429;BME280;14881;48.092;11.574;2023-08-30T10:36:59;94784.56;;;18.93;100.00
27429;BME280;14881;48.092;11.574;2023-08-30T10:39:33;94786.09;;;19.09;100.00
27429;BME280;14881;48.092;11.574;2023-08-30T10:42:00;94786.94;;;18.94;100.00
27429;BME280;14881;48.092;11.574;2023-08-30T10:44:27;94784.66;;;18.61;100.00
27429;BME280;14881;48.092;11.574;2023-08-30T10:46:54;94784.50;;;18.07;100.00
27429;BME280;14881;48.092;11.574;2023-08-30T10:49:22;94792.47;;;17.81;100.00
27429;BME280;14881;48.092;11.574;2023-08-30T10:51:56;94790.06;;;17.51;100.00
27429;BME280;14881;48.092;11.574;2023-08-30T10:54:23;94788.38;;;17.47;100.00
27429;BME280;14881;48.092;11.574;2023-08-30T10:56:54;94788.38;;;17.47;100.00
27429;BME280;14881;48.092;11.574;2023-08-30T10:59:23;94779.19;;;17.55;100.00
27429;BME280;14881;48.092;11.574;2023-08-30T11:01:51;94779.69;;;17.72;100.00
27429;BME280;14881;48.092;11.574;2023-08-30T11:04:18;94778.72;;;18.28;100.00
27429;BME280;14881;48.092;11.574;2023-08-30T11:06:48;94780.09;;;19.04;100.00
27429;BME280;14881;48.092;11.574;2023-08-30T11:09:17;94766.31;;;19.62;100.00
27429;BME280;14881;48.092;11.574;2023-08-30T11:11:44;94770.00;;;20.15;100.00
27429;BME280;14881;48.092;11.574;2023-08-30T11:14:11;94761.38;;;20.66;100.00
27429;BME280;14881;48.092;11.574;2023-08-30T11:16:38;94763.97;;;20.81;100.00
27429;BME280;14881;48.092;11.574;2023-08-30T11:19:05;94767.75;;;20.70;100.00
27429;BME280;14881;48.092;11.574;2023-08-30T11:21:33;94766.56;;;20.44;100.00
27429;BME280;14881;48.092;11.574;2023-08-30T11:24:01;94775.59;;;20.19;100.00
27429;BME280;14881;48.092;11.574;2023-08-30T11:26:29;94762.34;;;20.28;100.00
27429;BME280;14881;48.092;11.574;2023-08-30T11:28:55;94758.38;;;20.25;100.00
27429;BME280;14881;48.092;11.574;2023-08-30T11:31:23;94758.53;;;20.13;100.00
27429;BME280;14881;48.092;11.574;2023-08-30T11:33:52;94754.94;;;20.09;100.00
27429;BME280;14881;48.092;11.574;2023-08-30T11:36:20;94758.63;;;19.71;100.00
27429;BME280;14881;48.092;11.574;2023-08-30T11:38:47;94751.19;;;19.75;100.00
27429;BME280;14881;48.092;11.574;2023-08-30T11:41:14;94750.97;;;20.06;100.00
27429;BME280;14881;48.092;11.574;2023-08-30T11:43:41;94753.63;;;20.48;100.00
27429;BME280;14881;48.092;11.574;2023-08-30T11:46:08;94749.22;;;21.00;100.00
27429;BME280;14881;48.092;11.574;2023-08-30T11:48:35;94745.78;;;21.37;100.00
27429;BME280;14881;48.092;11.574;2023-08-30T11:51:01;94733.28;;;21.87;100.00
27429;BME280;14881;48.092;11.574;2023-08-30T11:53:28;94730.09;;;21.85;100.00
27429;BME280;14881;48.092;11.574;2023-08-30T11:55:55;94748.69;;;21.51;100.00
27429;BME280;14881;48.092;11.574;2023-08-30T11:58:22;94743.97;;;20.62;100.00
27429;BME280;14881;48.092;11.574;2023-08-30T12:00:50;94741.69;;;20.41;100.00
27429;BME280;14881;48.092;11.574;2023-08-30T12:03:17;94746.22;;;20.30;100.00
27429;BME280;14881;48.092;11.574;2023-08-30T12:05:44;94735.97;;;20.30;100.00
27429;BME280;14881;48.092;11.574;2023-08-30T12:08:18;94738.50;;;20.16;100.00
27429;BME280;14881;48.092;11.574;2023-08-30T12:10:44;94737.13;;;20.52;100.00
27429;BME280;14881;48.092;11.574;2023-08-30T12:13:20;94731.06;;;20.99;100.00
27429;BME280;14881;48.092;11.574;2023-08-30T12:15:47;94721.75;;;21.11;100.00
27429;BME280;14881;48.092;11.574;2023-08-30T12:18:14;94724.97;;;20.57;100.00
27429;BME280;14881;48.092;11.574;2023-08-30T12:20:51;94725.22;;;19.99;100.00
27429;BME280;14881;48.092;11.574;2023-08-30T12:23:21;94734.41;;;19.61;100.00
27429;BME280;14881;48.092;11.574;2023-08-30T12:25:57;94731.28;;;19.24;100.00
27429;BME280;14881;48.092;11.574;2023-08-30T12:28:23;94730.94;;;19.06;100.00
27429;BME280;14881;48.092;11.574;2023-08-30T12:30:50;94731.25;;;18.82;100.00
27429;BME280;14881;48.092;11.574;2023-08-30T12:33:17;94731.91;;;18.59;100.00
27429;BME280;14881;48.092;11.574;2023-08-30T12:35:44;94729.41;;;18.54;100.00
27429;BME280;14881;48.092;11.574;2023-08-30T12:38:10;94727.34;;;18.32;100.00
27429;BME280;14881;48.092;11.574;2023-08-30T12:40:38;94744.44;;;18.41;100.00
27429;BME280;14881;48.092;11.574;2023-08-30T12:43:04;94738.84;;;18.37;100.00